Archimede — IXZR — position and weather

sailwx.info

Track history (hours):
 
Tides and Currents Weather Stations Pressure Air Temp Water Temp Dewpoint Dewpoint Depression Visibility Wind Speed Wind Dir Waves Ship Positions

Archimede

Last reported at 2018-Feb-24 08:00 UTC. Time now 2018-Feb-24 08:30 UTC.
Position N 38°13' E 015°38'.

; draft 3 m.

Type: Passenger vessel. MMSI: 247054700.

Date/timePositionNaut miles runAvg speedWind from/ knotsBaromVisibWave heightAir tempDewpointWater temp
2018-Feb-24 08:00N 38°13' E 015°38'0 0.0
2018-Feb-24 07:30N 38°13' E 015°38'1 1.1
2018-Feb-24 07:00N 38°13' E 015°38'510.7
2018-Feb-24 06:30N 38°09' E 015°33'2 3.1
2018-Feb-24 06:00N 38°08' E 015°31'0 0.1
2018-Feb-24 05:30N 38°08' E 015°31'2 4.3
2018-Feb-24 05:00N 38°09' E 015°34'510.6
2018-Feb-24 04:30N 38°13' E 015°38'3 5.1
2018-Feb-24 04:00N 38°11' E 015°37'510.2
2018-Feb-24 03:30N 38°08' E 015°31'1 1.4
2018-Feb-24 03:00N 38°08' E 015°32'510.9
2018-Feb-24 02:30N 38°12' E 015°37'1 1.0
2018-Feb-24 01:59N 38°12' E 015°36'611.3
2018-Feb-24 01:30N 38°08' E 015°32'3 6.1
2018-Feb-24 01:00N 38°10' E 015°34'4 8.8
2018-Feb-24 00:30N 38°13' E 015°38'3 6.8
2018-Feb-24 00:00N 38°11' E 015°35'4 8.2
2018-Feb-23 23:30N 38°08' E 015°31'4 8.5
2018-Feb-23 23:00N 38°11' E 015°35'3 6.6
2018-Feb-23 22:30N 38°13' E 015°38'4 8.8
2018-Feb-23 22:00N 38°10' E 015°34'3 6.2
2018-Feb-23 21:30N 38°08' E 015°31'5 9.9
2018-Feb-23 20:58N 38°12' E 015°35'2 5.1
2018-Feb-23 20:30N 38°13' E 015°38'4 8.2
2018-Feb-23 20:00N 38°10' E 015°35'3 5.7
2018-Feb-23 19:24N 38°08' E 015°31'410.8
2018-Feb-23 19:00N 38°11' E 015°35'3 6.3
2018-Feb-23 18:30N 38°13' E 015°38'3 6.6
2018-Feb-23 18:00N 38°11' E 015°35'4 6.3
2018-Feb-23 17:22N 38°08' E 015°31'410.4
2018-Feb-23 17:00N 38°11' E 015°35'4 7.5
2018-Feb-23 16:30N 38°13' E 015°38'5 9.3
2018-Feb-23 16:00N 38°10' E 015°34'3 5.6
2018-Feb-23 15:30N 38°08' E 015°31'5 9.9
2018-Feb-23 14:59N 38°12' E 015°36'2 4.9
2018-Feb-23 14:30N 38°13' E 015°38'510.6
2018-Feb-23 14:00N 38°09' E 015°33'2 3.6
2018-Feb-23 13:30N 38°08' E 015°32'5 9.4
2018-Feb-23 13:00N 38°12' E 015°35'3 5.3
2018-Feb-23 12:30N 38°13' E 015°38'5 8.9
2018-Feb-23 12:00N 38°10' E 015°34'3 5.5
2018-Feb-23 11:27N 38°08' E 015°31'4 8.1
2018-Feb-23 11:00N 38°11' E 015°34'4 7.9
2018-Feb-23 10:30N 38°13' E 015°38'3 6.2
2018-Feb-23 10:00N 38°12' E 015°35'5 7.4
2018-Feb-23 09:24N 38°08' E 015°31'3 8.5
2018-Feb-23 09:00N 38°11' E 015°34'4 8.4
2018-Feb-23 08:30N 38°13' E 015°38'4 7.3
2018-Feb-23 08:00N 38°11' E 015°34'4 7.4
2018-Feb-23 07:30N 38°08' E 015°31'4 7.4
2018-Feb-23 07:00N 38°11' E 015°34'4 7.6
2018-Feb-23 06:30N 38°13' E 015°38'4 7.7
2018-Feb-23 06:00N 38°11' E 015°34'4 6.6
2018-Feb-23 05:27N 38°08' E 015°31'4 8.4
2018-Feb-23 05:00N 38°11' E 015°34'4 7.5
2018-Feb-23 04:30N 38°13' E 015°38'3 5.5
2018-Feb-23 04:00N 38°12' E 015°35'5 9.5
2018-Feb-23 03:30N 38°08' E 015°31'3 5.2
2018-Feb-23 03:00N 38°10' E 015°34'5 9.9
2018-Feb-23 02:30N 38°13' E 015°38'3 6.3
2018-Feb-23 02:00N 38°11' E 015°35'4 8.6
2018-Feb-23 01:30N 38°08' E 015°31'4 7.6
2018-Feb-23 01:00N 38°11' E 015°35'4 7.5
2018-Feb-23 00:30N 38°13' E 015°38'4 8.0
2018-Feb-23 00:00N 38°10' E 015°35'3 6.8
2018-Feb-22 23:30N 38°08' E 015°32'510.4
2018-Feb-22 23:00N 38°12' E 015°36'2 4.4
2018-Feb-22 22:30N 38°13' E 015°38'5 9.6
2018-Feb-22 22:00N 38°10' E 015°34'2 4.7
2018-Feb-22 21:30N 38°08' E 015°32'510.9
2018-Feb-22 21:00N 38°12' E 015°36'1 2.9
2018-Feb-22 20:30N 38°13' E 015°38'510.2
2018-Feb-22 19:59N 38°09' E 015°34'2 3.8
2018-Feb-22 19:27N 38°08' E 015°32'512.0
2018-Feb-22 19:00N 38°12' E 015°36'2 3.2
2018-Feb-22 18:30N 38°13' E 015°38'510.0
2018-Feb-22 18:00N 38°10' E 015°33'2 4.8
2018-Feb-22 17:30N 38°08' E 015°31'510.1
2018-Feb-22 16:59N 38°12' E 015°36'2 4.5
2018-Feb-22 16:30N 38°13' E 015°38'5 9.4
2018-Feb-22 16:00N 38°10' E 015°34'3 5.7
2018-Feb-22 15:30N 38°08' E 015°31'510.2
2018-Feb-22 15:00N 38°12' E 015°35'2 4.8
2018-Feb-22 14:30N 38°13' E 015°38'510.2
2018-Feb-22 14:00N 38°10' E 015°34'2 3.4
2018-Feb-22 13:30N 38°08' E 015°32'1 0.1
2018-Feb-22 07:33N 38°08' E 015°31'0 0.1
2018-Feb-22 07:18N 38°08' E 015°31'310.3
2018-Feb-22 07:00N 38°10' E 015°34'5 9.1
2018-Feb-22 06:30N 38°13' E 015°38'3 6.8
2018-Feb-22 06:00N 38°10' E 015°37'5 9.4
2018-Feb-22 05:30N 38°08' E 015°31'4 7.3
2018-Feb-22 05:00N 38°11' E 015°35'4 7.8
2018-Feb-22 04:30N 38°13' E 015°38'4 8.3
2018-Feb-22 04:00N 38°09' E 015°36'4 8.3
2018-Feb-22 03:30N 38°08' E 015°31'3 6.2
2018-Feb-22 03:00N 38°10' E 015°34'4 8.8
2018-Feb-22 02:30N 38°13' E 015°38'5 9.2
2018-Feb-22 01:59N 38°09' E 015°36'3 6.3
2018-Feb-22 01:30N 38°08' E 015°32'612.3
2018-Feb-22 01:00N 38°13' E 015°37'2 3.2
2018-Feb-22 00:30N 38°11' E 015°37'6 9.4
2018-Feb-21 23:55N 38°08' E 015°31'2 5.5
2018-Feb-21 23:30N 38°09' E 015°34'510.3
2018-Feb-21 23:00N 38°13' E 015°38'2 3.6
2018-Feb-21 22:30N 38°12' E 015°37'5 9.9
2018-Feb-21 21:59N 38°08' E 015°32'1 1.1
2018-Feb-21 21:28N 38°09' E 015°33'511.0
2018-Feb-21 21:00N 38°13' E 015°36'1 2.8
2018-Feb-21 20:30N 38°13' E 015°38'510.0
2018-Feb-21 19:59N 38°09' E 015°35'3 5.9
2018-Feb-21 19:29N 38°08' E 015°31'4 9.0
2018-Feb-21 19:00N 38°11' E 015°35'3 6.2
2018-Feb-21 18:30N 38°13' E 015°38'4 8.2
2018-Feb-21 18:00N 38°09' E 015°36'4 7.4
2018-Feb-21 17:29N 38°08' E 015°31'4 8.1
2018-Feb-21 17:00N 38°11' E 015°35'4 7.3
2018-Feb-21 16:30N 38°13' E 015°38'3 0.3
2018-Feb-21 06:58N 38°13' E 015°34'3 6.8
2018-Feb-21 06:30N 38°13' E 015°38'5 9.2
2018-Feb-21 06:00N 38°10' E 015°34'3 5.5
2018-Feb-21 05:30N 38°08' E 015°31'3 6.2
2018-Feb-21 04:59N 38°10' E 015°34'4 8.7
2018-Feb-21 04:30N 38°13' E 015°38'3 6.8
2018-Feb-21 04:00N 38°11' E 015°35'4 7.6
2018-Feb-21 03:29N 38°08' E 015°31'4 9.3
2018-Feb-21 03:00N 38°12' E 015°35'3 5.6
2018-Feb-21 02:30N 38°13' E 015°38'510.0
2018-Feb-21 01:57N 38°09' E 015°34'2 3.4
2018-Feb-21 01:29N 38°08' E 015°32'611.2
2018-Feb-21 01:00N 38°13' E 015°36'1 2.0
2018-Feb-21 00:30N 38°13' E 015°37'5 9.7
2018-Feb-20 23:59N 38°09' E 015°34'1 3.1
2018-Feb-20 23:30N 38°08' E 015°32'510.8
2018-Feb-20 23:00N 38°13' E 015°36'2 3.2
2018-Feb-20 22:30N 38°13' E 015°38'5 9.8
2018-Feb-20 21:59N 38°09' E 015°35'2 4.2
2018-Feb-20 21:26N 38°08' E 015°32'510.9
2018-Feb-20 21:00N 38°12' E 015°36'2 4.6
2018-Feb-20 20:30N 38°13' E 015°38'4 8.0
2018-Feb-20 20:00N 38°10' E 015°36'4 8.2
2018-Feb-20 19:30N 38°08' E 015°31'2 3.7
2018-Feb-20 19:00N 38°09' E 015°33'510.7
2018-Feb-20 18:30N 38°13' E 015°38'0 0.7
2018-Feb-20 18:00N 38°13' E 015°38'0 0.0
2018-Feb-20 17:30N 38°13' E 015°38'0 0.0
2018-Feb-20 17:00N 38°13' E 015°38'3 6.0
2018-Feb-20 16:30N 38°10' E 015°37'5 9.0
2018-Feb-20 16:00N 38°08' E 015°32'0 0.6
2018-Feb-20 15:30N 38°08' E 015°32'510.6
2018-Feb-20 15:00N 38°12' E 015°36'2 3.0
2018-Feb-20 14:30N 38°13' E 015°37'510.0
2018-Feb-20 14:00N 38°09' E 015°35'3 5.3
2018-Feb-20 13:30N 38°08' E 015°31'611.4
2018-Feb-20 13:01N 38°12' E 015°36'1 2.9
2018-Feb-20 12:30N 38°13' E 015°37'510.0
2018-Feb-20 12:00N 38°09' E 015°34'2 4.7
2018-Feb-20 11:30N 38°08' E 015°31'4 7.4
2018-Feb-20 11:00N 38°11' E 015°35'4 7.3
2018-Feb-20 10:30N 38°13' E 015°38'4 8.3
2018-Feb-20 10:00N 38°09' E 015°36'4 7.3
2018-Feb-20 09:26N 38°08' E 015°31'510.5
2018-Feb-20 09:00N 38°11' E 015°35'3 5.9
2018-Feb-20 08:30N 38°13' E 015°38'510.2
2018-Feb-20 08:00N 38°09' E 015°35'3 5.9
2018-Feb-20 07:30N 38°08' E 015°32'510.8
2018-Feb-20 07:00N 38°12' E 015°36'2 3.2
2018-Feb-20 06:30N 38°13' E 015°38'510.1
2018-Feb-20 05:58N 38°08' E 015°34'2 3.8
2018-Feb-20 05:30N 38°08' E 015°32'611.3
2018-Feb-20 05:00N 38°13' E 015°36'1 2.7
2018-Feb-20 04:30N 38°13' E 015°38'510.1
2018-Feb-20 04:00N 38°09' E 015°36'3 6.2
2018-Feb-20 03:29N 38°08' E 015°31'511.1
2018-Feb-20 02:59N 38°12' E 015°36'2 3.6
2018-Feb-20 02:30N 38°13' E 015°38'510.0
2018-Feb-20 02:00N 38°09' E 015°35'2 3.8
2018-Feb-20 01:29N 38°08' E 015°32'612.0
2018-Feb-20 01:00N 38°13' E 015°37'1 1.9
2018-Feb-20 00:30N 38°12' E 015°37'5 9.6
2018-Feb-20 00:00N 38°08' E 015°33'0 1.0
2018-Feb-19 23:30N 38°09' E 015°33'611.7
2018-Feb-19 23:00N 38°13' E 015°37'3 4.9
2018-Feb-19 22:28N 38°11' E 015°37'4 9.5
2018-Feb-19 22:00N 38°08' E 015°32'1 1.2
2018-Feb-19 21:30N 38°09' E 015°33'510.8
2018-Feb-19 21:00N 38°13' E 015°37'1 1.8
2018-Feb-19 20:31N 38°13' E 015°38'510.2
2018-Feb-19 20:00N 38°09' E 015°35'3 5.7
2018-Feb-19 19:30N 38°08' E 015°31'5 9.1
2018-Feb-19 19:00N 38°11' E 015°35'3 5.9
2018-Feb-19 18:30N 38°13' E 015°38'4 7.4
2018-Feb-19 17:59N 38°10' E 015°37'4 9.1
2018-Feb-19 17:31N 38°08' E 015°31'3 6.5
2018-Feb-19 17:01N 38°10' E 015°34'4 8.3
2018-Feb-19 16:31N 38°13' E 015°38'4 6.8
2018-Feb-19 15:59N 38°10' E 015°36'4 9.2
2018-Feb-19 15:30N 38°08' E 015°31'1 2.6
2018-Feb-19 15:00N 38°09' E 015°33'612.1
2018-Feb-19 14:30N 38°13' E 015°38'0 0.4
2018-Feb-19 14:00N 38°13' E 015°38'0 0.0
2018-Feb-19 13:31N 38°13' E 015°38'0 0.0
2018-Feb-19 13:00N 38°13' E 015°38'3 6.8
2018-Feb-19 12:30N 38°10' E 015°36'4 8.8
2018-Feb-19 12:00N 38°08' E 015°31'2 3.3
2018-Feb-19 11:26N 38°09' E 015°33'512.9
2018-Feb-19 11:00N 38°14' E 015°37'1 2.7
2018-Feb-19 10:29N 38°12' E 015°37'4 9.0
2018-Feb-19 10:00N 38°09' E 015°34'2 3.6
2018-Feb-19 09:28N 38°08' E 015°32'2 3.9
2018-Feb-19 09:00N 38°09' E 015°34'510.5
2018-Feb-19 08:30N 38°13' E 015°38'3 6.7
2018-Feb-19 08:00N 38°10' E 015°37'5 9.1
2018-Feb-19 07:30N 38°08' E 015°31'3 6.3
2018-Feb-19 07:00N 38°10' E 015°34'4 8.7
2018-Feb-19 06:30N 38°13' E 015°38'3 6.7
2018-Feb-19 06:00N 38°10' E 015°37'5 9.0
2018-Feb-19 05:29N 38°08' E 015°31'3 6.3
2018-Feb-19 05:00N 38°10' E 015°34'4 8.8
2018-Feb-19 04:30N 38°13' E 015°38'3 6.6
2018-Feb-19 04:00N 38°10' E 015°37'5 9.1
2018-Feb-19 03:30N 38°08' E 015°31'1 1.7
2018-Feb-19 03:00N 38°08' E 015°32'611.8
2018-Feb-19 02:30N 38°13' E 015°37'2 3.8
2018-Feb-19 02:00N 38°11' E 015°37'5 9.6
2018-Feb-19 01:28N 38°08' E 015°32'1 1.3
2018-Feb-19 00:58N 38°09' E 015°33'511.6
2018-Feb-19 00:30N 38°13' E 015°37'1 2.2
2018-Feb-19 00:00N 38°13' E 015°38'0 0.0
2018-Feb-18 23:28N 38°13' E 015°38'0 0.0
2018-Feb-18 23:00N 38°13' E 015°38'0 0.0
2018-Feb-18 22:30N 38°13' E 015°38'0 0.0
2018-Feb-18 22:00N 38°13' E 015°38'2 4.2
2018-Feb-18 21:29N 38°13' E 015°35'1 2.2
2018-Feb-18 20:57N 38°13' E 015°34'3 7.3
2018-Feb-18 20:30N 38°13' E 015°38'3 1.8
2018-Feb-18 18:44N 38°13' E 015°34'310.5
2018-Feb-18 18:30N 38°14' E 015°37'1 2.3
2018-Feb-18 17:59N 38°13' E 015°36'1 0.1
2018-Feb-18 02:50N 38°13' E 015°34'3 8.7
2018-Feb-18 02:30N 38°13' E 015°38'3 1.0
2018-Feb-17 23:33N 38°13' E 015°34'114.4
2018-Feb-17 23:30N 38°13' E 015°35'2 4.1
2018-Feb-17 23:00N 38°13' E 015°38'3 4.1
2018-Feb-17 22:16N 38°13' E 015°34'312.5
2018-Feb-17 22:00N 38°13' E 015°38'2 4.0
2018-Feb-17 21:30N 38°12' E 015°36'1 2.4
2018-Feb-17 20:57N 38°13' E 015°34'3 7.1
2018-Feb-17 20:30N 38°13' E 015°38'3 6.0
2018-Feb-17 20:00N 38°13' E 015°34'0 0.0
2018-Feb-17 07:07N 38°13' E 015°34'0 0.0
2018-Feb-16 10:52N 38°13' E 015°34'3 8.7
2018-Feb-16 10:30N 38°13' E 015°38'3 3.6
2018-Feb-16 09:34N 38°13' E 015°34'0 6.5
2018-Feb-16 09:31N 38°13' E 015°34'3 5.5
2018-Feb-16 09:00N 38°13' E 015°38'3 3.4
2018-Feb-16 08:13N 38°13' E 015°34'211.6
2018-Feb-16 08:00N 38°14' E 015°37'1 2.8
2018-Feb-16 07:30N 38°12' E 015°36'1 2.5
2018-Feb-16 06:58N 38°13' E 015°34'3 6.2
2018-Feb-16 06:30N 38°13' E 015°38'3 0.8
2018-Feb-16 02:23N 38°13' E 015°34'0 0.0
2018-Feb-16 01:38N 38°13' E 015°34'0 0.0
2018-Feb-15 23:07N 38°13' E 015°34'0 0.0
2018-Feb-15 22:45N 38°13' E 015°34'0 1.0
2018-Feb-15 22:20N 38°13' E 015°34'3 9.2
2018-Feb-15 22:00N 38°13' E 015°38'3 5.6
2018-Feb-15 21:29N 38°13' E 015°34'0 0.9
2018-Feb-15 21:00N 38°13' E 015°35'3 5.3
2018-Feb-15 20:30N 38°13' E 015°38'3 0.2
2018-Feb-15 06:04N 38°13' E 015°34'0 0.0
2018-Feb-15 06:00N 38°13' E 015°34'0 0.0
2018-Feb-15 03:42N 38°13' E 015°34'0 0.0
2018-Feb-15 03:29N 38°13' E 015°34'0 0.0
2018-Feb-15 01:42N 38°13' E 015°34'0 0.0
2018-Feb-15 01:16N 38°13' E 015°34'0 0.4
2018-Feb-15 00:58N 38°13' E 015°34'3 7.2
2018-Feb-15 00:30N 38°13' E 015°38'3 6.6
2018-Feb-14 23:59N 38°13' E 015°34'3 5.5
2018-Feb-14 23:30N 38°14' E 015°37'1 1.4
2018-Feb-14 22:58N 38°13' E 015°37'2 5.3
2018-Feb-14 22:30N 38°13' E 015°34'3 6.9
2018-Feb-14 22:00N 38°13' E 015°38'2 4.9
2018-Feb-14 21:30N 38°12' E 015°35'1 1.2
2018-Feb-14 21:00N 38°13' E 015°34'3 5.8
2018-Feb-14 20:30N 38°13' E 015°38'2 4.4
2018-Feb-14 19:59N 38°12' E 015°35'1 0.7
2018-Feb-14 18:23N 38°13' E 015°34'3 9.0
2018-Feb-14 18:00N 38°13' E 015°38'2 4.3
2018-Feb-14 17:28N 38°13' E 015°35'1 0.3
2018-Feb-14 14:05N 38°13' E 015°34'1 5.9
2018-Feb-14 13:59N 38°13' E 015°34'3 5.6
2018-Feb-14 13:28N 38°13' E 015°38'0 0.0
2018-Feb-14 13:00N 38°13' E 015°38'0 0.0
2018-Feb-14 12:30N 38°13' E 015°38'0 0.4
2018-Feb-14 12:00N 38°13' E 015°38'3 6.4
2018-Feb-14 11:30N 38°13' E 015°34'1 0.9
2018-Feb-14 10:56N 38°13' E 015°34'3 6.8
2018-Feb-14 10:30N 38°13' E 015°38'3 2.9
2018-Feb-14 09:19N 38°13' E 015°34'0 0.0
2018-Feb-14 08:53N 38°13' E 015°34'  
Track history (hours):
 
Tides and Currents Weather Stations Pressure Air Temp Water Temp Dewpoint Dewpoint Depression Visibility Wind Speed Wind Dir Waves Ship Positions

Archimede

Last reported at 2018-Feb-24 08:00 UTC. Time now 2018-Feb-24 08:30 UTC.
Position N 38°13' E 015°38'.

; draft 3 m.

Type: Passenger vessel. MMSI: 247054700.

Date/timePositionNaut miles runAvg speedWind from/ knotsBaromVisibWave heightAir tempDewpointWater temp
2018-Feb-24 08:00N 38°13' E 015°38'0 0.0
2018-Feb-24 07:30N 38°13' E 015°38'1 1.1
2018-Feb-24 07:00N 38°13' E 015°38'510.7
2018-Feb-24 06:30N 38°09' E 015°33'2 3.1
2018-Feb-24 06:00N 38°08' E 015°31'0 0.1
2018-Feb-24 05:30N 38°08' E 015°31'2 4.3
2018-Feb-24 05:00N 38°09' E 015°34'510.6
2018-Feb-24 04:30N 38°13' E 015°38'3 5.1
2018-Feb-24 04:00N 38°11' E 015°37'510.2
2018-Feb-24 03:30N 38°08' E 015°31'1 1.4
2018-Feb-24 03:00N 38°08' E 015°32'510.9
2018-Feb-24 02:30N 38°12' E 015°37'1 1.0
2018-Feb-24 01:59N 38°12' E 015°36'611.3
2018-Feb-24 01:30N 38°08' E 015°32'3 6.1
2018-Feb-24 01:00N 38°10' E 015°34'4 8.8
2018-Feb-24 00:30N 38°13' E 015°38'3 6.8
2018-Feb-24 00:00N 38°11' E 015°35'4 8.2
2018-Feb-23 23:30N 38°08' E 015°31'4 8.5
2018-Feb-23 23:00N 38°11' E 015°35'3 6.6
2018-Feb-23 22:30N 38°13' E 015°38'4 8.8
2018-Feb-23 22:00N 38°10' E 015°34'3 6.2
2018-Feb-23 21:30N 38°08' E 015°31'5 9.9
2018-Feb-23 20:58N 38°12' E 015°35'2 5.1
2018-Feb-23 20:30N 38°13' E 015°38'4 8.2
2018-Feb-23 20:00N 38°10' E 015°35'3 5.7
2018-Feb-23 19:24N 38°08' E 015°31'410.8
2018-Feb-23 19:00N 38°11' E 015°35'3 6.3
2018-Feb-23 18:30N 38°13' E 015°38'3 6.6
2018-Feb-23 18:00N 38°11' E 015°35'4 6.3
2018-Feb-23 17:22N 38°08' E 015°31'410.4
2018-Feb-23 17:00N 38°11' E 015°35'4 7.5
2018-Feb-23 16:30N 38°13' E 015°38'5 9.3
2018-Feb-23 16:00N 38°10' E 015°34'3 5.6
2018-Feb-23 15:30N 38°08' E 015°31'5 9.9
2018-Feb-23 14:59N 38°12' E 015°36'2 4.9
2018-Feb-23 14:30N 38°13' E 015°38'510.6
2018-Feb-23 14:00N 38°09' E 015°33'2 3.6
2018-Feb-23 13:30N 38°08' E 015°32'5 9.4
2018-Feb-23 13:00N 38°12' E 015°35'3 5.3
2018-Feb-23 12:30N 38°13' E 015°38'5 8.9
2018-Feb-23 12:00N 38°10' E 015°34'3 5.5
2018-Feb-23 11:27N 38°08' E 015°31'4 8.1
2018-Feb-23 11:00N 38°11' E 015°34'4 7.9
2018-Feb-23 10:30N 38°13' E 015°38'3 6.2
2018-Feb-23 10:00N 38°12' E 015°35'5 7.4
2018-Feb-23 09:24N 38°08' E 015°31'3 8.5
2018-Feb-23 09:00N 38°11' E 015°34'4 8.4
2018-Feb-23 08:30N 38°13' E 015°38'4 7.3
2018-Feb-23 08:00N 38°11' E 015°34'4 7.4
2018-Feb-23 07:30N 38°08' E 015°31'4 7.4
2018-Feb-23 07:00N 38°11' E 015°34'4 7.6
2018-Feb-23 06:30N 38°13' E 015°38'4 7.7
2018-Feb-23 06:00N 38°11' E 015°34'4 6.6
2018-Feb-23 05:27N 38°08' E 015°31'4 8.4
2018-Feb-23 05:00N 38°11' E 015°34'4 7.5
2018-Feb-23 04:30N 38°13' E 015°38'3 5.5
2018-Feb-23 04:00N 38°12' E 015°35'5 9.5
2018-Feb-23 03:30N 38°08' E 015°31'3 5.2
2018-Feb-23 03:00N 38°10' E 015°34'5 9.9
2018-Feb-23 02:30N 38°13' E 015°38'3 6.3
2018-Feb-23 02:00N 38°11' E 015°35'4 8.6
2018-Feb-23 01:30N 38°08' E 015°31'4 7.6
2018-Feb-23 01:00N 38°11' E 015°35'4 7.5
2018-Feb-23 00:30N 38°13' E 015°38'4 8.0
2018-Feb-23 00:00N 38°10' E 015°35'3 6.8
2018-Feb-22 23:30N 38°08' E 015°32'510.4
2018-Feb-22 23:00N 38°12' E 015°36'2 4.4
2018-Feb-22 22:30N 38°13' E 015°38'5 9.6
2018-Feb-22 22:00N 38°10' E 015°34'2 4.7
2018-Feb-22 21:30N 38°08' E 015°32'510.9
2018-Feb-22 21:00N 38°12' E 015°36'1 2.9
2018-Feb-22 20:30N 38°13' E 015°38'510.2
2018-Feb-22 19:59N 38°09' E 015°34'2 3.8
2018-Feb-22 19:27N 38°08' E 015°32'512.0
2018-Feb-22 19:00N 38°12' E 015°36'2 3.2
2018-Feb-22 18:30N 38°13' E 015°38'510.0
2018-Feb-22 18:00N 38°10' E 015°33'2 4.8
2018-Feb-22 17:30N 38°08' E 015°31'510.1
2018-Feb-22 16:59N 38°12' E 015°36'2 4.5
2018-Feb-22 16:30N 38°13' E 015°38'5 9.4
2018-Feb-22 16:00N 38°10' E 015°34'3 5.7
2018-Feb-22 15:30N 38°08' E 015°31'510.2
2018-Feb-22 15:00N 38°12' E 015°35'2 4.8
2018-Feb-22 14:30N 38°13' E 015°38'510.2
2018-Feb-22 14:00N 38°10' E 015°34'2 3.4
2018-Feb-22 13:30N 38°08' E 015°32'1 0.1
2018-Feb-22 07:33N 38°08' E 015°31'0 0.1
2018-Feb-22 07:18N 38°08' E 015°31'310.3
2018-Feb-22 07:00N 38°10' E 015°34'5 9.1
2018-Feb-22 06:30N 38°13' E 015°38'3 6.8
2018-Feb-22 06:00N 38°10' E 015°37'5 9.4
2018-Feb-22 05:30N 38°08' E 015°31'4 7.3
2018-Feb-22 05:00N 38°11' E 015°35'4 7.8
2018-Feb-22 04:30N 38°13' E 015°38'4 8.3
2018-Feb-22 04:00N 38°09' E 015°36'4 8.3
2018-Feb-22 03:30N 38°08' E 015°31'3 6.2
2018-Feb-22 03:00N 38°10' E 015°34'4 8.8
2018-Feb-22 02:30N 38°13' E 015°38'5 9.2
2018-Feb-22 01:59N 38°09' E 015°36'3 6.3
2018-Feb-22 01:30N 38°08' E 015°32'612.3
2018-Feb-22 01:00N 38°13' E 015°37'2 3.2
2018-Feb-22 00:30N 38°11' E 015°37'6 9.4
2018-Feb-21 23:55N 38°08' E 015°31'2 5.5
2018-Feb-21 23:30N 38°09' E 015°34'510.3
2018-Feb-21 23:00N 38°13' E 015°38'2 3.6
2018-Feb-21 22:30N 38°12' E 015°37'5 9.9
2018-Feb-21 21:59N 38°08' E 015°32'1 1.1
2018-Feb-21 21:28N 38°09' E 015°33'511.0
2018-Feb-21 21:00N 38°13' E 015°36'1 2.8
2018-Feb-21 20:30N 38°13' E 015°38'510.0
2018-Feb-21 19:59N 38°09' E 015°35'3 5.9
2018-Feb-21 19:29N 38°08' E 015°31'4 9.0
2018-Feb-21 19:00N 38°11' E 015°35'3 6.2
2018-Feb-21 18:30N 38°13' E 015°38'4 8.2
2018-Feb-21 18:00N 38°09' E 015°36'4 7.4
2018-Feb-21 17:29N 38°08' E 015°31'4 8.1
2018-Feb-21 17:00N 38°11' E 015°35'4 7.3
2018-Feb-21 16:30N 38°13' E 015°38'3 0.3
2018-Feb-21 06:58N 38°13' E 015°34'3 6.8
2018-Feb-21 06:30N 38°13' E 015°38'5 9.2
2018-Feb-21 06:00N 38°10' E 015°34'3 5.5
2018-Feb-21 05:30N 38°08' E 015°31'3 6.2
2018-Feb-21 04:59N 38°10' E 015°34'4 8.7
2018-Feb-21 04:30N 38°13' E 015°38'3 6.8
2018-Feb-21 04:00N 38°11' E 015°35'4 7.6
2018-Feb-21 03:29N 38°08' E 015°31'4 9.3
2018-Feb-21 03:00N 38°12' E 015°35'3 5.6
2018-Feb-21 02:30N 38°13' E 015°38'510.0
2018-Feb-21 01:57N 38°09' E 015°34'2 3.4
2018-Feb-21 01:29N 38°08' E 015°32'611.2
2018-Feb-21 01:00N 38°13' E 015°36'1 2.0
2018-Feb-21 00:30N 38°13' E 015°37'5 9.7
2018-Feb-20 23:59N 38°09' E 015°34'1 3.1
2018-Feb-20 23:30N 38°08' E 015°32'510.8
2018-Feb-20 23:00N 38°13' E 015°36'2 3.2
2018-Feb-20 22:30N 38°13' E 015°38'5 9.8
2018-Feb-20 21:59N 38°09' E 015°35'2 4.2
2018-Feb-20 21:26N 38°08' E 015°32'510.9
2018-Feb-20 21:00N 38°12' E 015°36'2 4.6
2018-Feb-20 20:30N 38°13' E 015°38'4 8.0
2018-Feb-20 20:00N 38°10' E 015°36'4 8.2
2018-Feb-20 19:30N 38°08' E 015°31'2 3.7
2018-Feb-20 19:00N 38°09' E 015°33'510.7
2018-Feb-20 18:30N 38°13' E 015°38'0 0.7
2018-Feb-20 18:00N 38°13' E 015°38'0 0.0
2018-Feb-20 17:30N 38°13' E 015°38'0 0.0
2018-Feb-20 17:00N 38°13' E 015°38'3 6.0
2018-Feb-20 16:30N 38°10' E 015°37'5 9.0
2018-Feb-20 16:00N 38°08' E 015°32'0 0.6
2018-Feb-20 15:30N 38°08' E 015°32'510.6
2018-Feb-20 15:00N 38°12' E 015°36'2 3.0
2018-Feb-20 14:30N 38°13' E 015°37'510.0
2018-Feb-20 14:00N 38°09' E 015°35'3 5.3
2018-Feb-20 13:30N 38°08' E 015°31'611.4
2018-Feb-20 13:01N 38°12' E 015°36'1 2.9
2018-Feb-20 12:30N 38°13' E 015°37'510.0
2018-Feb-20 12:00N 38°09' E 015°34'2 4.7
2018-Feb-20 11:30N 38°08' E 015°31'4 7.4
2018-Feb-20 11:00N 38°11' E 015°35'4 7.3
2018-Feb-20 10:30N 38°13' E 015°38'4 8.3
2018-Feb-20 10:00N 38°09' E 015°36'4 7.3
2018-Feb-20 09:26N 38°08' E 015°31'510.5
2018-Feb-20 09:00N 38°11' E 015°35'3 5.9
2018-Feb-20 08:30N 38°13' E 015°38'510.2
2018-Feb-20 08:00N 38°09' E 015°35'3 5.9
2018-Feb-20 07:30N 38°08' E 015°32'510.8
2018-Feb-20 07:00N 38°12' E 015°36'2 3.2
2018-Feb-20 06:30N 38°13' E 015°38'510.1
2018-Feb-20 05:58N 38°08' E 015°34'2 3.8
2018-Feb-20 05:30N 38°08' E 015°32'611.3
2018-Feb-20 05:00N 38°13' E 015°36'1 2.7
2018-Feb-20 04:30N 38°13' E 015°38'510.1
2018-Feb-20 04:00N 38°09' E 015°36'3 6.2
2018-Feb-20 03:29N 38°08' E 015°31'511.1
2018-Feb-20 02:59N 38°12' E 015°36'2 3.6
2018-Feb-20 02:30N 38°13' E 015°38'510.0
2018-Feb-20 02:00N 38°09' E 015°35'2 3.8
2018-Feb-20 01:29N 38°08' E 015°32'612.0
2018-Feb-20 01:00N 38°13' E 015°37'1 1.9
2018-Feb-20 00:30N 38°12' E 015°37'5 9.6
2018-Feb-20 00:00N 38°08' E 015°33'0 1.0
2018-Feb-19 23:30N 38°09' E 015°33'611.7
2018-Feb-19 23:00N 38°13' E 015°37'3 4.9
2018-Feb-19 22:28N 38°11' E 015°37'4 9.5
2018-Feb-19 22:00N 38°08' E 015°32'1 1.2
2018-Feb-19 21:30N 38°09' E 015°33'510.8
2018-Feb-19 21:00N 38°13' E 015°37'1 1.8
2018-Feb-19 20:31N 38°13' E 015°38'510.2
2018-Feb-19 20:00N 38°09' E 015°35'3 5.7
2018-Feb-19 19:30N 38°08' E 015°31'5 9.1
2018-Feb-19 19:00N 38°11' E 015°35'3 5.9
2018-Feb-19 18:30N 38°13' E 015°38'4 7.4
2018-Feb-19 17:59N 38°10' E 015°37'4 9.1
2018-Feb-19 17:31N 38°08' E 015°31'3 6.5
2018-Feb-19 17:01N 38°10' E 015°34'4 8.3
2018-Feb-19 16:31N 38°13' E 015°38'4 6.8
2018-Feb-19 15:59N 38°10' E 015°36'4 9.2
2018-Feb-19 15:30N 38°08' E 015°31'1 2.6
2018-Feb-19 15:00N 38°09' E 015°33'612.1
2018-Feb-19 14:30N 38°13' E 015°38'0 0.4
2018-Feb-19 14:00N 38°13' E 015°38'0 0.0
2018-Feb-19 13:31N 38°13' E 015°38'0 0.0
2018-Feb-19 13:00N 38°13' E 015°38'3 6.8
2018-Feb-19 12:30N 38°10' E 015°36'4 8.8
2018-Feb-19 12:00N 38°08' E 015°31'2 3.3
2018-Feb-19 11:26N 38°09' E 015°33'512.9
2018-Feb-19 11:00N 38°14' E 015°37'1 2.7
2018-Feb-19 10:29N 38°12' E 015°37'4 9.0
2018-Feb-19 10:00N 38°09' E 015°34'2 3.6
2018-Feb-19 09:28N 38°08' E 015°32'2 3.9
2018-Feb-19 09:00N 38°09' E 015°34'510.5
2018-Feb-19 08:30N 38°13' E 015°38'3 6.7
2018-Feb-19 08:00N 38°10' E 015°37'5 9.1
2018-Feb-19 07:30N 38°08' E 015°31'3 6.3
2018-Feb-19 07:00N 38°10' E 015°34'4 8.7
2018-Feb-19 06:30N 38°13' E 015°38'3 6.7
2018-Feb-19 06:00N 38°10' E 015°37'5 9.0
2018-Feb-19 05:29N 38°08' E 015°31'3 6.3
2018-Feb-19 05:00N 38°10' E 015°34'4 8.8
2018-Feb-19 04:30N 38°13' E 015°38'3 6.6
2018-Feb-19 04:00N 38°10' E 015°37'5 9.1
2018-Feb-19 03:30N 38°08' E 015°31'1 1.7
2018-Feb-19 03:00N 38°08' E 015°32'611.8
2018-Feb-19 02:30N 38°13' E 015°37'2 3.8
2018-Feb-19 02:00N 38°11' E 015°37'5 9.6
2018-Feb-19 01:28N 38°08' E 015°32'1 1.3
2018-Feb-19 00:58N 38°09' E 015°33'511.6
2018-Feb-19 00:30N 38°13' E 015°37'1 2.2
2018-Feb-19 00:00N 38°13' E 015°38'0 0.0
2018-Feb-18 23:28N 38°13' E 015°38'0 0.0
2018-Feb-18 23:00N 38°13' E 015°38'0 0.0
2018-Feb-18 22:30N 38°13' E 015°38'0 0.0
2018-Feb-18 22:00N 38°13' E 015°38'2 4.2
2018-Feb-18 21:29N 38°13' E 015°35'1 2.2
2018-Feb-18 20:57N 38°13' E 015°34'3 7.3
2018-Feb-18 20:30N 38°13' E 015°38'3 1.8
2018-Feb-18 18:44N 38°13' E 015°34'310.5
2018-Feb-18 18:30N 38°14' E 015°37'1 2.3
2018-Feb-18 17:59N 38°13' E 015°36'1 0.1
2018-Feb-18 02:50N 38°13' E 015°34'3 8.7
2018-Feb-18 02:30N 38°13' E 015°38'3 1.0
2018-Feb-17 23:33N 38°13' E 015°34'114.4
2018-Feb-17 23:30N 38°13' E 015°35'2 4.1
2018-Feb-17 23:00N 38°13' E 015°38'3 4.1
2018-Feb-17 22:16N 38°13' E 015°34'312.5
2018-Feb-17 22:00N 38°13' E 015°38'2 4.0
2018-Feb-17 21:30N 38°12' E 015°36'1 2.4
2018-Feb-17 20:57N 38°13' E 015°34'3 7.1
2018-Feb-17 20:30N 38°13' E 015°38'3 6.0
2018-Feb-17 20:00N 38°13' E 015°34'0 0.0
2018-Feb-17 07:07N 38°13' E 015°34'0 0.0
2018-Feb-16 10:52N 38°13' E 015°34'3 8.7
2018-Feb-16 10:30N 38°13' E 015°38'3 3.6
2018-Feb-16 09:34N 38°13' E 015°34'0 6.5
2018-Feb-16 09:31N 38°13' E 015°34'3 5.5
2018-Feb-16 09:00N 38°13' E 015°38'3 3.4
2018-Feb-16 08:13N 38°13' E 015°34'211.6
2018-Feb-16 08:00N 38°14' E 015°37'1 2.8
2018-Feb-16 07:30N 38°12' E 015°36'1 2.5
2018-Feb-16 06:58N 38°13' E 015°34'3 6.2
2018-Feb-16 06:30N 38°13' E 015°38'3 0.8
2018-Feb-16 02:23N 38°13' E 015°34'0 0.0
2018-Feb-16 01:38N 38°13' E 015°34'0 0.0
2018-Feb-15 23:07N 38°13' E 015°34'0 0.0
2018-Feb-15 22:45N 38°13' E 015°34'0 1.0
2018-Feb-15 22:20N 38°13' E 015°34'3 9.2
2018-Feb-15 22:00N 38°13' E 015°38'3 5.6
2018-Feb-15 21:29N 38°13' E 015°34'0 0.9
2018-Feb-15 21:00N 38°13' E 015°35'3 5.3
2018-Feb-15 20:30N 38°13' E 015°38'3 0.2
2018-Feb-15 06:04N 38°13' E 015°34'0 0.0
2018-Feb-15 06:00N 38°13' E 015°34'0 0.0
2018-Feb-15 03:42N 38°13' E 015°34'0 0.0
2018-Feb-15 03:29N 38°13' E 015°34'0 0.0
2018-Feb-15 01:42N 38°13' E 015°34'0 0.0
2018-Feb-15 01:16N 38°13' E 015°34'0 0.4
2018-Feb-15 00:58N 38°13' E 015°34'3 7.2
2018-Feb-15 00:30N 38°13' E 015°38'3 6.6
2018-Feb-14 23:59N 38°13' E 015°34'3 5.5
2018-Feb-14 23:30N 38°14' E 015°37'1 1.4
2018-Feb-14 22:58N 38°13' E 015°37'2 5.3
2018-Feb-14 22:30N 38°13' E 015°34'3 6.9
2018-Feb-14 22:00N 38°13' E 015°38'2 4.9
2018-Feb-14 21:30N 38°12' E 015°35'1 1.2
2018-Feb-14 21:00N 38°13' E 015°34'3 5.8
2018-Feb-14 20:30N 38°13' E 015°38'2 4.4
2018-Feb-14 19:59N 38°12' E 015°35'1 0.7
2018-Feb-14 18:23N 38°13' E 015°34'3 9.0
2018-Feb-14 18:00N 38°13' E 015°38'2 4.3
2018-Feb-14 17:28N 38°13' E 015°35'1 0.3
2018-Feb-14 14:05N 38°13' E 015°34'1 5.9
2018-Feb-14 13:59N 38°13' E 015°34'3 5.6
2018-Feb-14 13:28N 38°13' E 015°38'0 0.0
2018-Feb-14 13:00N 38°13' E 015°38'0 0.0
2018-Feb-14 12:30N 38°13' E 015°38'0 0.4
2018-Feb-14 12:00N 38°13' E 015°38'3 6.4
2018-Feb-14 11:30N 38°13' E 015°34'1 0.9
2018-Feb-14 10:56N 38°13' E 015°34'3 6.8
2018-Feb-14 10:30N 38°13' E 015°38'3 2.9
2018-Feb-14 09:19N 38°13' E 015°34'0 0.0
2018-Feb-14 08:53N 38°13' E 015°34'  

Dump ship's entire track history